createdAt,value
2023-11-23T00:00:44.041Z,101060.31
2023-11-23T00:03:13.287Z,101056.87
2023-11-23T00:05:42.228Z,101056.48
2023-11-23T00:08:12.889Z,101056.28
2023-11-23T00:10:42.333Z,101058.95
2023-11-23T00:13:12.530Z,101050.15
2023-11-23T00:15:41.872Z,101053.96
2023-11-23T00:18:13.559Z,101053.96
2023-11-23T00:20:42.502Z,101063.33
2023-11-23T00:23:11.268Z,101051.85
2023-11-23T00:25:40.345Z,101059.88
2023-11-23T00:28:19.624Z,101061.45
2023-11-23T00:30:48.915Z,101058.87
2023-11-23T00:33:17.969Z,101066.12
2023-11-23T00:35:46.706Z,101062.02
2023-11-23T00:38:17.406Z,101053.13
2023-11-23T00:40:46.241Z,101051.70
2023-11-23T00:43:16.866Z,101048.48
2023-11-23T00:45:45.940Z,101037.60
2023-11-23T00:48:14.864Z,101028.33
2023-11-23T00:50:53.082Z,101034.36
2023-11-23T00:53:17.938Z,101027.67
2023-11-23T00:55:47.034Z,101028.33
2023-11-23T00:58:15.964Z,101023.92
2023-11-23T01:00:45.101Z,101020.30
2023-11-23T01:03:14.291Z,101013.98
2023-11-23T01:05:59.124Z,101016.66
2023-11-23T01:08:17.045Z,101008.72
2023-11-23T01:10:47.152Z,101005.91
2023-11-23T01:13:16.257Z,100999.98
2023-11-23T01:15:46.038Z,101001.80
2023-11-23T01:18:15.720Z,101005.70
2023-11-23T01:20:45.170Z,101002.31
2023-11-23T01:23:14.372Z,100997.80
2023-11-23T01:25:44.095Z,100981.15
2023-11-23T01:28:13.419Z,100975.12
2023-11-23T01:30:43.671Z,100972.62
2023-11-23T01:33:13.097Z,100965.25
2023-11-23T01:35:42.115Z,100964.86
2023-11-23T01:38:10.914Z,100964.95
2023-11-23T01:40:44.932Z,100962.16
2023-11-23T01:43:45.466Z,100965.02
2023-11-23T01:46:02.079Z,100973.24
2023-11-23T01:48:32.209Z,100971.73
2023-11-23T01:51:06.175Z,100972.89
2023-11-23T01:53:35.366Z,100967.45
2023-11-23T01:56:05.172Z,100966.20
2023-11-23T01:58:34.179Z,100960.64
2023-11-23T02:01:03.330Z,100949.17
2023-11-23T02:03:32.612Z,100955.09
2023-11-23T02:06:01.185Z,100948.58
2023-11-23T02:08:29.964Z,100952.29
2023-11-23T02:10:59.474Z,100948.55
2023-11-23T02:13:27.857Z,100945.48
2023-11-23T02:15:56.366Z,100938.23
2023-11-23T02:18:24.920Z,100937.85
2023-11-23T02:20:53.407Z,100942.25
2023-11-23T02:23:21.784Z,100935.17
2023-11-23T02:25:50.252Z,100936.52
2023-11-23T02:28:19.187Z,100931.55
2023-11-23T02:30:47.972Z,100928.22
2023-11-23T02:33:16.368Z,100926.70
2023-11-23T02:35:45.398Z,100918.89
2023-11-23T02:38:13.696Z,100923.77
2023-11-23T02:40:44.001Z,100928.55
2023-11-23T02:43:12.680Z,100914.13
2023-11-23T02:45:42.420Z,100914.99
2023-11-23T02:48:11.183Z,100914.52
2023-11-23T02:50:39.422Z,100914.90
2023-11-23T02:53:09.926Z,100912.91
2023-11-23T02:55:38.486Z,100915.28
2023-11-23T02:58:06.951Z,100917.66
2023-11-23T03:00:35.870Z,100910.41
2023-11-23T03:03:05.053Z,100906.78
2023-11-23T03:05:34.371Z,100913.11
2023-11-23T03:08:03.975Z,100910.25
2023-11-23T03:10:35.152Z,100908.05
2023-11-23T03:13:03.709Z,100907.19
2023-11-23T03:15:32.285Z,100899.45
2023-11-23T03:18:01.177Z,100894.97
2023-11-23T03:20:30.697Z,100892.49
2023-11-23T03:23:00.252Z,100883.42
2023-11-23T03:25:28.791Z,100880.47
2023-11-23T03:27:58.500Z,100885.25
2023-11-23T03:30:27.035Z,100887.92
2023-11-23T03:32:55.521Z,100875.50
2023-11-23T03:35:24.377Z,100874.16
2023-11-23T03:37:52.867Z,100864.51
2023-11-23T03:40:22.038Z,100853.22
2023-11-23T03:42:50.719Z,100852.17
2023-11-23T03:45:19.420Z,100840.61
2023-11-23T03:47:48.604Z,100828.57
2023-11-23T03:50:17.613Z,100816.44
2023-11-23T03:52:46.299Z,100808.60
2023-11-23T03:55:14.518Z,100810.90
2023-11-23T03:57:44.887Z,100817.49
2023-11-23T04:00:15.224Z,100804.97
2023-11-23T04:02:44.552Z,100802.30
2023-11-23T04:05:21.200Z,100798.66
2023-11-23T04:07:50.713Z,100784.80
2023-11-23T04:10:19.360Z,100778.69
2023-11-23T04:12:50.431Z,100785.19
2023-11-23T04:15:18.854Z,100781.46
2023-11-23T04:17:47.395Z,100763.97
2023-11-23T04:20:17.102Z,100762.15
2023-11-23T04:22:46.415Z,100759.47
2023-11-23T04:25:15.026Z,100763.20
2023-11-23T04:27:44.409Z,100776.20
2023-11-23T04:30:14.055Z,100770.95
2023-11-23T04:32:42.712Z,100768.36
2023-11-23T04:35:13.043Z,100767.70
2023-11-23T04:37:41.445Z,100756.98
2023-11-23T04:40:13.373Z,100756.23
2023-11-23T04:42:44.382Z,100755.27
2023-11-23T04:45:12.867Z,100758.61
2023-11-23T04:47:41.615Z,100762.84
2023-11-23T04:50:10.504Z,100750.70
2023-11-23T04:52:39.054Z,100772.02
2023-11-23T04:55:08.537Z,100765.42
2023-11-23T04:57:38.170Z,100754.91
2023-11-23T05:00:11.304Z,100746.88
2023-11-23T05:02:41.967Z,100743.62
2023-11-23T05:05:14.411Z,100752.03
2023-11-23T05:07:43.685Z,100741.70
2023-11-23T05:10:12.507Z,100732.91
2023-11-23T05:12:41.217Z,100719.53
2023-11-23T05:15:10.182Z,100715.52
2023-11-23T05:17:39.915Z,100710.06
2023-11-23T05:20:09.808Z,100706.70
2023-11-23T05:22:40.213Z,100697.44
2023-11-23T05:25:10.418Z,100693.14
2023-11-23T05:27:38.782Z,100690.46
2023-11-23T05:30:08.347Z,100684.43
2023-11-23T05:32:37.463Z,100680.70
2023-11-23T05:35:09.709Z,100667.11
2023-11-23T05:37:37.905Z,100665.56
2023-11-23T05:40:12.890Z,100657.44
2023-11-23T05:42:47.665Z,100658.19
2023-11-23T05:45:11.930Z,100661.14
2023-11-23T05:47:40.839Z,100660.66
2023-11-23T05:50:10.471Z,100649.00
2023-11-23T05:52:40.023Z,100647.17
2023-11-23T05:55:10.872Z,100650.61
2023-11-23T05:57:39.763Z,100650.98
2023-11-23T06:00:10.063Z,100655.38
2023-11-23T06:02:39.858Z,100647.73
2023-11-23T06:05:09.414Z,100639.11
2023-11-23T06:07:39.128Z,100631.28
2023-11-23T06:10:08.913Z,100630.42
2023-11-23T06:12:37.613Z,100622.88
2023-11-23T06:15:08.911Z,100618.48
2023-11-23T06:17:37.465Z,100614.84
2023-11-23T06:20:08.929Z,100602.78
2023-11-23T06:22:38.696Z,100594.65
2023-11-23T06:25:08.428Z,100586.52
2023-11-23T06:27:37.014Z,100576.17
2023-11-23T06:30:06.623Z,100574.62
2023-11-23T06:32:35.526Z,100572.70
2023-11-23T06:35:05.679Z,100571.37
2023-11-23T06:37:34.009Z,100584.55
2023-11-23T06:40:04.094Z,100574.91
2023-11-23T06:42:33.954Z,100589.53
2023-11-23T06:45:03.956Z,100584.55
2023-11-23T06:47:34.378Z,100576.89
2023-11-23T06:50:03.180Z,100578.81
2023-11-23T06:52:32.653Z,100584.07
2023-11-23T06:55:02.294Z,100576.03
2023-11-23T06:57:31.325Z,100584.72
2023-11-23T07:00:02.792Z,100577.16
2023-11-23T07:02:32.832Z,100562.70
2023-11-23T07:05:05.230Z,100554.08
2023-11-23T07:07:33.836Z,100553.11
2023-11-23T07:10:03.257Z,100545.83
2023-11-23T07:12:32.659Z,100539.40
2023-11-23T07:15:01.744Z,100532.59
2023-11-23T07:17:31.239Z,100533.34
2023-11-23T07:19:59.937Z,100515.37
2023-11-23T07:22:28.520Z,100493.73
2023-11-23T07:24:57.514Z,100490.19
2023-11-23T07:27:30.793Z,100479.37
2023-11-23T07:29:59.580Z,100470.14
2023-11-23T07:32:28.048Z,100471.16
2023-11-23T07:34:57.115Z,100449.98
2023-11-23T07:37:25.741Z,100431.27
2023-11-23T07:39:54.426Z,100436.89
2023-11-23T07:42:24.718Z,100425.91
2023-11-23T07:44:54.002Z,100414.11
2023-11-23T07:47:24.338Z,100408.64
2023-11-23T07:49:54.209Z,100409.72
2023-11-23T07:52:23.177Z,100397.28
2023-11-23T07:54:51.696Z,100389.84
2023-11-23T07:57:20.791Z,100387.16
2023-11-23T07:59:50.019Z,100384.48
2023-11-23T08:02:18.616Z,100368.66
2023-11-23T08:04:47.386Z,100370.14
2023-11-23T08:07:16.024Z,100370.78
2023-11-23T08:09:44.735Z,100359.83
2023-11-23T08:12:13.913Z,100348.25
2023-11-23T08:14:42.505Z,100354.47
2023-11-23T08:17:12.869Z,100369.58
2023-11-23T08:19:41.762Z,100350.33
2023-11-23T08:22:12.312Z,100353.72
2023-11-23T08:24:41.160Z,100350.19
2023-11-23T08:27:09.698Z,100341.81
2023-11-23T08:29:39.348Z,100336.59
2023-11-23T08:32:12.817Z,100338.30
2023-11-23T08:34:43.941Z,100325.64
2023-11-23T08:37:17.530Z,100327.47
2023-11-23T08:39:54.866Z,100324.81
2023-11-23T08:42:26.711Z,100328.74
2023-11-23T08:44:58.314Z,100322.66
2023-11-23T08:47:27.492Z,100316.58
2023-11-23T08:49:59.067Z,100301.34
2023-11-23T08:52:28.984Z,100289.16
2023-11-23T08:55:01.215Z,100285.54
2023-11-23T08:57:31.079Z,100270.30
2023-11-23T09:00:01.893Z,100266.78
2023-11-23T09:02:32.993Z,100265.59
2023-11-23T09:05:01.987Z,100256.47
2023-11-23T09:07:31.553Z,100243.91
2023-11-23T09:10:00.332Z,100249.28
2023-11-23T09:12:31.489Z,100239.65
2023-11-23T09:15:01.757Z,100217.94
2023-11-23T09:17:31.677Z,100209.16
2023-11-23T09:20:04.867Z,100210.25
2023-11-23T09:22:38.203Z,100201.47
2023-11-23T09:25:10.107Z,100190.49
2023-11-23T09:27:44.757Z,100185.13
2023-11-23T09:30:14.233Z,100188.17
2023-11-23T09:32:44.147Z,100192.20
2023-11-23T09:35:12.628Z,100189.76
2023-11-23T09:37:41.203Z,100192.68
2023-11-23T09:40:12.321Z,100184.14
2023-11-23T09:42:41.040Z,100163.78
2023-11-23T09:45:13.531Z,100140.48
2023-11-23T09:47:42.176Z,100112.32
2023-11-23T09:50:10.733Z,100103.55
2023-11-23T09:52:39.860Z,100090.63
2023-11-23T09:55:09.244Z,100086.84
2023-11-23T09:57:39.052Z,100075.02
2023-11-23T10:00:10.354Z,100061.97
2023-11-23T10:02:39.191Z,100035.26
2023-11-23T10:05:09.980Z,100029.16
2023-11-23T10:07:38.719Z,100019.02
2023-11-23T10:10:09.519Z,99989.02
2023-11-23T10:12:38.614Z,99978.66
2023-11-23T10:15:09.778Z,100001.34
2023-11-23T10:17:40.640Z,100004.28
2023-11-23T10:20:11.311Z,100013.55
2023-11-23T10:22:48.618Z,100016.95
2023-11-23T10:25:32.101Z,99986.72
2023-11-23T10:28:00.942Z,99980.16
2023-11-23T10:30:31.653Z,99946.88
2023-11-23T10:33:01.274Z,99941.77
2023-11-23T10:35:43.007Z,99942.86
2023-11-23T10:38:11.946Z,99924.47
2023-11-23T10:40:40.591Z,99911.53
2023-11-23T10:43:10.066Z,99903.25
2023-11-23T10:45:40.148Z,99880.09
2023-11-23T10:48:08.974Z,99875.34
2023-11-23T10:50:37.666Z,99864.27
2023-11-23T10:53:06.737Z,99865.84
2023-11-23T10:55:35.738Z,99868.28
2023-11-23T10:58:14.452Z,99858.17
2023-11-23T11:00:47.702Z,99843.44
2023-11-23T11:03:16.495Z,99850.24
2023-11-23T11:05:48.179Z,99856.45
2023-11-23T11:08:20.932Z,99850.97
2023-11-23T11:10:54.691Z,99838.28
2023-11-23T11:13:24.601Z,99822.92
2023-11-23T11:16:04.424Z,99805.86
2023-11-23T11:18:36.135Z,99784.02
2023-11-23T11:21:10.293Z,99764.16
2023-11-23T11:23:45.518Z,99754.93
2023-11-23T11:26:27.408Z,99752.02
2023-11-23T11:29:06.658Z,99752.28
2023-11-23T11:31:40.988Z,99741.81
2023-11-23T11:34:21.856Z,99750.83
2023-11-23T11:37:02.494Z,99744.00
2023-11-23T11:39:32.878Z,99732.66
2023-11-23T11:42:01.693Z,99725.23
2023-11-23T11:44:55.418Z,99720.23
2023-11-23T11:47:26.373Z,99699.64
2023-11-23T11:49:55.305Z,99709.38
2023-11-23T11:52:24.770Z,99694.86
2023-11-23T11:54:53.117Z,99678.91
2023-11-23T11:57:23.734Z,99664.91
2023-11-23T11:59:54.029Z,99650.30
2023-11-23T12:02:23.416Z,99653.61
2023-11-23T12:05:00.013Z,99643.24
2023-11-23T12:07:28.407Z,99640.92
2023-11-23T12:09:57.001Z,99628.59
2023-11-23T12:12:29.174Z,99616.27
2023-11-23T12:14:58.690Z,99595.66
2023-11-23T12:17:27.406Z,99584.58
2023-11-23T12:19:57.254Z,99573.37
2023-11-23T12:22:28.978Z,99566.17
2023-11-23T12:27:46.634Z,99551.78
2023-11-23T12:30:16.804Z,99548.48
2023-11-23T12:32:45.659Z,99544.55
2023-11-23T12:35:14.523Z,99531.61
2023-11-23T12:37:43.355Z,99522.09
2023-11-23T12:40:13.098Z,99518.06
2023-11-23T12:42:42.007Z,99501.12
2023-11-23T12:45:11.272Z,99483.56
2023-11-23T12:47:44.647Z,99490.98
2023-11-23T12:50:13.153Z,99475.24
2023-11-23T12:52:41.532Z,99473.48
2023-11-23T12:55:11.304Z,99468.20
2023-11-23T12:57:40.219Z,99456.42
2023-11-23T13:00:16.409Z,99460.17
2023-11-23T13:02:45.035Z,99439.06
2023-11-23T13:05:14.080Z,99428.77
2023-11-23T13:07:42.876Z,99418.39
2023-11-23T13:10:12.194Z,99406.38
2023-11-23T13:12:40.841Z,99401.23
2023-11-23T13:15:12.814Z,99393.75
2023-11-23T13:17:44.050Z,99375.31
2023-11-23T13:20:15.053Z,99377.71
2023-11-23T13:22:44.751Z,99363.16
2023-11-23T13:25:15.418Z,99357.16
2023-11-23T13:27:44.184Z,99351.30
2023-11-23T13:30:15.593Z,99345.58
2023-11-23T13:32:46.461Z,99328.63
2023-11-23T13:35:16.132Z,99323.76
2023-11-23T13:37:46.184Z,99301.59
2023-11-23T13:40:15.987Z,99283.45
